Aeroporto :
LOGIN :

Iscrizione | Disclaimer

   EN    FR    IT 

 










Sommario :    VFR   VFR Marginale   IFR   IFR Intensivo   IFR Molto Intensivo
Visibilità : 
Base nubi : 
>= 8 km
>= 3000ft
5 / 8 km
1000 / 3000 ft
1500m / 5 km
500 / 1000 ft
800 / 1500m
200 / 500 ft
< 800m
< 200 ft
Simboli :   Temporali  Nebbia  Neve Forte  Precipitazioni Forti  Vento > 20 kt
SIGMETs :   Varie  Temporali  Ghiacco  Turbolenza  Onda orograficha  Ceneri Vulcaniche






- Altitudine del aeroporto : 396 ft


LFOZ - Orléans St Denis

ULTIMO METAR :
  • 290500Z AUTO 22009KT 5000 -RA BR BKN009/// BKN016/// OVC027/// ///CB 13/12 Q1016

METARs OBSOLETI :
  • 290430Z AUTO 22008KT 6000 -RA FEW011/// BKN025/// OVC031/// ///TCU 13/12 Q1016
  • 290400Z AUTO 22008KT 9000 -RA FEW026/// OVC033/// ///CB 13/12 Q1016
  • 290330Z AUTO 22007KT 9999 -DZ OVC032/// ///TCU 13/12 Q1016
  • 290300Z AUTO 24005KT 210V270 9999 -RA BKN033/// BKN048/// OVC100/// ///TCU 13/12 Q1016
  • 290230Z AUTO 23006KT 200V260 9999 -RA ///TCU 13/12 Q1016
  • 290200Z AUTO 22007KT 9999 SCT045/// OVC100/// ///CB 14/12 Q1016
  • 290130Z AUTO 25006KT 200V280 9999 FEW021 BKN047 BKN120 14/12 Q1017
  • 290100Z AUTO 25007KT 210V270 9999 FEW022 BKN052 BKN110 15/12 Q1017
  • 290030Z AUTO 24006KT 210V270 CAVOK 15/12 Q1017

TAF N/A



MetMap, La meteo Aeronautica in un colpo d'occhio ! - Copyright ORBIFLY Dicembre 2007 - Disclaimer

ORBIFLY MET'MAP TEAM :

Programmazione e sviluppo : Alexandra Zaïnal
Concezione : Baudouin d'Aumeries
Supporto tecnico e logistico : Manuel Goepfert
Aiuto : Marc-Olivier Méhu
Aiuto per la traduzione : Arnaldo La Scala




FONTI E CREDITI :

   NOAA